sensor_id;sensor_type;location;lat;lon;timestamp;P1;durP1;ratioP1;P2;durP2;ratioP2
23668;SDS011;12011;47.422;15.018;2023-07-20T00:01:09;3.97;;;3.94;;
23668;SDS011;12011;47.422;15.018;2023-07-20T00:03:41;3.60;;;3.58;;
23668;SDS011;12011;47.422;15.018;2023-07-20T00:06:10;3.13;;;3.11;;
23668;SDS011;12011;47.422;15.018;2023-07-20T00:08:40;3.26;;;3.22;;
23668;SDS011;12011;47.422;15.018;2023-07-20T00:11:09;3.41;;;3.40;;
23668;SDS011;12011;47.422;15.018;2023-07-20T00:13:39;3.78;;;3.76;;
23668;SDS011;12011;47.422;15.018;2023-07-20T00:16:09;3.72;;;3.70;;
23668;SDS011;12011;47.422;15.018;2023-07-20T00:18:41;3.88;;;3.88;;
23668;SDS011;12011;47.422;15.018;2023-07-20T00:21:10;3.58;;;3.55;;
23668;SDS011;12011;47.422;15.018;2023-07-20T00:23:40;3.67;;;3.67;;
23668;SDS011;12011;47.422;15.018;2023-07-20T00:26:09;3.78;;;3.77;;
23668;SDS011;12011;47.422;15.018;2023-07-20T00:28:39;3.70;;;3.68;;
23668;SDS011;12011;47.422;15.018;2023-07-20T00:31:08;3.61;;;3.59;;
23668;SDS011;12011;47.422;15.018;2023-07-20T00:33:41;3.72;;;3.72;;
23668;SDS011;12011;47.422;15.018;2023-07-20T00:36:10;3.76;;;3.76;;
23668;SDS011;12011;47.422;15.018;2023-07-20T00:38:42;3.77;;;3.77;;
23668;SDS011;12011;47.422;15.018;2023-07-20T00:41:11;3.39;;;3.38;;
23668;SDS011;12011;47.422;15.018;2023-07-20T00:43:41;3.62;;;3.62;;
23668;SDS011;12011;47.422;15.018;2023-07-20T00:46:11;3.42;;;3.41;;
23668;SDS011;12011;47.422;15.018;2023-07-20T00:48:43;3.54;;;3.54;;
23668;SDS011;12011;47.422;15.018;2023-07-20T00:51:13;3.38;;;3.38;;
23668;SDS011;12011;47.422;15.018;2023-07-20T00:53:43;3.37;;;3.37;;
23668;SDS011;12011;47.422;15.018;2023-07-20T00:56:14;3.21;;;3.21;;
23668;SDS011;12011;47.422;15.018;2023-07-20T00:58:44;3.27;;;3.26;;
23668;SDS011;12011;47.422;15.018;2023-07-20T01:01:14;3.01;;;3.01;;
23668;SDS011;12011;47.422;15.018;2023-07-20T01:03:46;3.38;;;3.38;;
23668;SDS011;12011;47.422;15.018;2023-07-20T01:06:19;3.94;;;3.93;;
23668;SDS011;12011;47.422;15.018;2023-07-20T01:09:06;3.40;;;3.40;;
23668;SDS011;12011;47.422;15.018;2023-07-20T01:11:43;3.65;;;3.64;;
23668;SDS011;12011;47.422;15.018;2023-07-20T01:14:24;3.55;;;3.53;;
23668;SDS011;12011;47.422;15.018;2023-07-20T01:16:54;3.60;;;3.60;;
23668;SDS011;12011;47.422;15.018;2023-07-20T01:19:27;3.47;;;3.47;;
23668;SDS011;12011;47.422;15.018;2023-07-20T01:21:59;3.73;;;3.72;;
23668;SDS011;12011;47.422;15.018;2023-07-20T01:24:44;3.44;;;3.43;;
23668;SDS011;12011;47.422;15.018;2023-07-20T01:30:52;3.33;;;3.31;;
23668;SDS011;12011;47.422;15.018;2023-07-20T01:33:31;3.39;;;3.38;;
23668;SDS011;12011;47.422;15.018;2023-07-20T01:36:03;3.13;;;3.12;;
23668;SDS011;12011;47.422;15.018;2023-07-20T01:38:35;3.09;;;3.09;;
23668;SDS011;12011;47.422;15.018;2023-07-20T01:41:06;3.04;;;3.03;;
23668;SDS011;12011;47.422;15.018;2023-07-20T01:43:35;2.87;;;2.85;;
23668;SDS011;12011;47.422;15.018;2023-07-20T01:46:05;2.92;;;2.89;;
23668;SDS011;12011;47.422;15.018;2023-07-20T01:48:37;3.00;;;2.97;;
23668;SDS011;12011;47.422;15.018;2023-07-20T01:51:07;3.19;;;3.16;;
23668;SDS011;12011;47.422;15.018;2023-07-20T01:53:40;3.22;;;3.18;;
23668;SDS011;12011;47.422;15.018;2023-07-20T01:56:09;3.29;;;3.26;;
23668;SDS011;12011;47.422;15.018;2023-07-20T01:58:39;3.55;;;3.52;;
23668;SDS011;12011;47.422;15.018;2023-07-20T02:01:10;3.33;;;3.30;;
23668;SDS011;12011;47.422;15.018;2023-07-20T02:03:42;3.39;;;3.39;;
23668;SDS011;12011;47.422;15.018;2023-07-20T02:06:12;3.50;;;3.50;;
23668;SDS011;12011;47.422;15.018;2023-07-20T02:08:41;3.56;;;3.56;;
23668;SDS011;12011;47.422;15.018;2023-07-20T02:11:11;3.23;;;3.23;;
23668;SDS011;12011;47.422;15.018;2023-07-20T02:13:40;2.82;;;2.82;;
23668;SDS011;12011;47.422;15.018;2023-07-20T02:16:10;3.18;;;3.18;;
23668;SDS011;12011;47.422;15.018;2023-07-20T02:18:42;3.38;;;3.37;;
23668;SDS011;12011;47.422;15.018;2023-07-20T02:21:12;3.03;;;3.01;;
23668;SDS011;12011;47.422;15.018;2023-07-20T02:23:41;2.69;;;2.66;;
23668;SDS011;12011;47.422;15.018;2023-07-20T02:26:11;3.19;;;3.16;;
23668;SDS011;12011;47.422;15.018;2023-07-20T02:28:40;2.97;;;2.95;;
23668;SDS011;12011;47.422;15.018;2023-07-20T02:31:12;3.02;;;2.98;;
23668;SDS011;12011;47.422;15.018;2023-07-20T02:33:44;3.02;;;2.98;;
23668;SDS011;12011;47.422;15.018;2023-07-20T02:36:13;3.41;;;3.39;;
23668;SDS011;12011;47.422;15.018;2023-07-20T02:38:43;2.92;;;2.89;;
23668;SDS011;12011;47.422;15.018;2023-07-20T02:41:13;2.96;;;2.93;;
23668;SDS011;12011;47.422;15.018;2023-07-20T02:43:43;3.16;;;3.12;;
23668;SDS011;12011;47.422;15.018;2023-07-20T02:46:12;3.51;;;3.50;;
23668;SDS011;12011;47.422;15.018;2023-07-20T02:48:44;3.14;;;3.14;;
23668;SDS011;12011;47.422;15.018;2023-07-20T02:51:14;3.05;;;3.03;;
23668;SDS011;12011;47.422;15.018;2023-07-20T02:53:43;3.05;;;3.04;;
23668;SDS011;12011;47.422;15.018;2023-07-20T02:56:13;3.40;;;3.40;;
23668;SDS011;12011;47.422;15.018;2023-07-20T02:58:43;3.13;;;3.13;;
23668;SDS011;12011;47.422;15.018;2023-07-20T03:01:13;3.21;;;3.20;;
23668;SDS011;12011;47.422;15.018;2023-07-20T03:03:45;3.47;;;3.45;;
23668;SDS011;12011;47.422;15.018;2023-07-20T03:06:16;3.59;;;3.58;;
23668;SDS011;12011;47.422;15.018;2023-07-20T03:08:46;3.45;;;3.43;;
23668;SDS011;12011;47.422;15.018;2023-07-20T03:11:19;3.41;;;3.39;;
23668;SDS011;12011;47.422;15.018;2023-07-20T03:13:49;3.17;;;3.17;;
23668;SDS011;12011;47.422;15.018;2023-07-20T03:16:21;3.22;;;3.22;;
23668;SDS011;12011;47.422;15.018;2023-07-20T03:18:55;3.38;;;3.38;;
23668;SDS011;12011;47.422;15.018;2023-07-20T03:21:25;3.05;;;3.05;;
23668;SDS011;12011;47.422;15.018;2023-07-20T03:23:56;2.88;;;2.87;;
23668;SDS011;12011;47.422;15.018;2023-07-20T03:26:25;3.38;;;3.38;;
23668;SDS011;12011;47.422;15.018;2023-07-20T03:28:56;3.12;;;3.11;;
23668;SDS011;12011;47.422;15.018;2023-07-20T03:31:25;3.35;;;3.33;;
23668;SDS011;12011;47.422;15.018;2023-07-20T03:33:57;2.73;;;2.71;;
23668;SDS011;12011;47.422;15.018;2023-07-20T03:36:27;3.15;;;3.11;;
23668;SDS011;12011;47.422;15.018;2023-07-20T03:38:57;3.16;;;3.14;;
23668;SDS011;12011;47.422;15.018;2023-07-20T03:41:26;3.23;;;3.21;;
23668;SDS011;12011;47.422;15.018;2023-07-20T03:43:58;3.60;;;3.58;;
23668;SDS011;12011;47.422;15.018;2023-07-20T03:46:28;3.43;;;3.39;;
23668;SDS011;12011;47.422;15.018;2023-07-20T03:49:01;3.00;;;2.98;;
23668;SDS011;12011;47.422;15.018;2023-07-20T03:51:31;2.75;;;2.74;;
23668;SDS011;12011;47.422;15.018;2023-07-20T03:54:01;2.48;;;2.47;;
23668;SDS011;12011;47.422;15.018;2023-07-20T03:56:31;2.93;;;2.92;;
23668;SDS011;12011;47.422;15.018;2023-07-20T03:59:01;3.02;;;3.02;;
23668;SDS011;12011;47.422;15.018;2023-07-20T04:01:31;3.01;;;3.01;;
23668;SDS011;12011;47.422;15.018;2023-07-20T04:04:08;2.65;;;2.64;;
23668;SDS011;12011;47.422;15.018;2023-07-20T04:06:38;2.88;;;2.86;;
23668;SDS011;12011;47.422;15.018;2023-07-20T04:09:10;2.95;;;2.93;;
23668;SDS011;12011;47.422;15.018;2023-07-20T04:11:41;3.43;;;3.40;;
23668;SDS011;12011;47.422;15.018;2023-07-20T04:14:10;2.93;;;2.92;;
23668;SDS011;12011;47.422;15.018;2023-07-20T04:16:40;2.96;;;2.95;;
23668;SDS011;12011;47.422;15.018;2023-07-20T04:19:12;2.87;;;2.84;;
23668;SDS011;12011;47.422;15.018;2023-07-20T04:21:43;3.02;;;2.98;;
23668;SDS011;12011;47.422;15.018;2023-07-20T04:24:13;3.05;;;3.00;;
23668;SDS011;12011;47.422;15.018;2023-07-20T04:26:45;3.13;;;3.09;;
23668;SDS011;12011;47.422;15.018;2023-07-20T04:29:14;3.54;;;3.49;;
23668;SDS011;12011;47.422;15.018;2023-07-20T04:31:44;3.03;;;3.00;;
23668;SDS011;12011;47.422;15.018;2023-07-20T04:34:17;3.20;;;3.16;;
23668;SDS011;12011;47.422;15.018;2023-07-20T04:36:46;3.00;;;2.97;;
23668;SDS011;12011;47.422;15.018;2023-07-20T04:39:17;3.48;;;3.44;;
23668;SDS011;12011;47.422;15.018;2023-07-20T04:41:46;3.34;;;3.31;;
23668;SDS011;12011;47.422;15.018;2023-07-20T04:44:17;3.22;;;3.22;;
23668;SDS011;12011;47.422;15.018;2023-07-20T04:46:47;3.61;;;3.61;;
23668;SDS011;12011;47.422;15.018;2023-07-20T04:49:19;3.17;;;3.17;;
23668;SDS011;12011;47.422;15.018;2023-07-20T04:51:49;3.07;;;3.06;;
23668;SDS011;12011;47.422;15.018;2023-07-20T04:54:20;3.12;;;3.11;;
23668;SDS011;12011;47.422;15.018;2023-07-20T04:56:50;3.10;;;3.09;;
23668;SDS011;12011;47.422;15.018;2023-07-20T04:59:23;3.39;;;3.39;;
23668;SDS011;12011;47.422;15.018;2023-07-20T05:01:52;3.27;;;3.26;;
23668;SDS011;12011;47.422;15.018;2023-07-20T05:04:24;3.19;;;3.18;;
23668;SDS011;12011;47.422;15.018;2023-07-20T05:06:54;3.44;;;3.44;;
23668;SDS011;12011;47.422;15.018;2023-07-20T05:09:24;3.44;;;3.44;;
23668;SDS011;12011;47.422;15.018;2023-07-20T05:11:53;3.48;;;3.48;;
23668;SDS011;12011;47.422;15.018;2023-07-20T05:14:23;3.28;;;3.26;;
23668;SDS011;12011;47.422;15.018;2023-07-20T05:16:53;3.52;;;3.51;;
23668;SDS011;12011;47.422;15.018;2023-07-20T05:19:27;3.53;;;3.49;;
23668;SDS011;12011;47.422;15.018;2023-07-20T05:21:56;3.13;;;3.10;;
23668;SDS011;12011;47.422;15.018;2023-07-20T05:24:26;3.14;;;3.13;;
23668;SDS011;12011;47.422;15.018;2023-07-20T05:26:55;2.92;;;2.89;;
23668;SDS011;12011;47.422;15.018;2023-07-20T05:29:26;3.03;;;3.00;;
23668;SDS011;12011;47.422;15.018;2023-07-20T05:31:55;2.79;;;2.77;;
23668;SDS011;12011;47.422;15.018;2023-07-20T05:34:27;2.80;;;2.80;;
23668;SDS011;12011;47.422;15.018;2023-07-20T05:37:11;3.40;;;3.40;;
23668;SDS011;12011;47.422;15.018;2023-07-20T05:39:40;3.30;;;3.30;;
23668;SDS011;12011;47.422;15.018;2023-07-20T05:42:10;2.93;;;2.93;;
23668;SDS011;12011;47.422;15.018;2023-07-20T05:44:40;3.01;;;3.01;;
23668;SDS011;12011;47.422;15.018;2023-07-20T05:47:10;3.12;;;3.12;;
23668;SDS011;12011;47.422;15.018;2023-07-20T05:49:42;2.74;;;2.74;;
23668;SDS011;12011;47.422;15.018;2023-07-20T05:52:12;2.86;;;2.85;;
23668;SDS011;12011;47.422;15.018;2023-07-20T05:54:42;2.73;;;2.73;;
23668;SDS011;12011;47.422;15.018;2023-07-20T05:57:11;3.05;;;3.04;;
23668;SDS011;12011;47.422;15.018;2023-07-20T05:59:41;2.69;;;2.69;;
23668;SDS011;12011;47.422;15.018;2023-07-20T06:02:11;2.88;;;2.88;;
23668;SDS011;12011;47.422;15.018;2023-07-20T06:04:43;3.06;;;3.06;;
23668;SDS011;12011;47.422;15.018;2023-07-20T06:07:13;2.94;;;2.94;;
23668;SDS011;12011;47.422;15.018;2023-07-20T06:09:43;2.77;;;2.77;;
23668;SDS011;12011;47.422;15.018;2023-07-20T06:12:12;3.07;;;3.06;;
23668;SDS011;12011;47.422;15.018;2023-07-20T06:14:42;3.16;;;3.16;;
23668;SDS011;12011;47.422;15.018;2023-07-20T06:17:12;3.24;;;3.24;;
23668;SDS011;12011;47.422;15.018;2023-07-20T06:19:44;3.03;;;3.03;;
23668;SDS011;12011;47.422;15.018;2023-07-20T06:22:13;3.42;;;3.40;;
23668;SDS011;12011;47.422;15.018;2023-07-20T06:24:43;3.31;;;3.31;;
23668;SDS011;12011;47.422;15.018;2023-07-20T06:27:13;3.02;;;3.02;;
23668;SDS011;12011;47.422;15.018;2023-07-20T06:29:42;3.18;;;3.18;;
23668;SDS011;12011;47.422;15.018;2023-07-20T06:32:12;3.38;;;3.36;;
23668;SDS011;12011;47.422;15.018;2023-07-20T06:34:44;3.19;;;3.19;;
23668;SDS011;12011;47.422;15.018;2023-07-20T06:37:14;3.24;;;3.24;;
23668;SDS011;12011;47.422;15.018;2023-07-20T06:39:45;3.16;;;3.16;;
23668;SDS011;12011;47.422;15.018;2023-07-20T06:42:15;2.94;;;2.94;;
23668;SDS011;12011;47.422;15.018;2023-07-20T06:44:44;2.85;;;2.85;;
23668;SDS011;12011;47.422;15.018;2023-07-20T06:47:14;2.67;;;2.67;;
23668;SDS011;12011;47.422;15.018;2023-07-20T06:49:46;2.43;;;2.43;;
23668;SDS011;12011;47.422;15.018;2023-07-20T06:52:15;2.88;;;2.88;;
23668;SDS011;12011;47.422;15.018;2023-07-20T06:54:45;2.76;;;2.76;;
23668;SDS011;12011;47.422;15.018;2023-07-20T06:57:14;2.29;;;2.29;;
23668;SDS011;12011;47.422;15.018;2023-07-20T06:59:44;2.44;;;2.44;;
23668;SDS011;12011;47.422;15.018;2023-07-20T07:02:14;2.81;;;2.81;;
23668;SDS011;12011;47.422;15.018;2023-07-20T07:04:46;2.57;;;2.57;;
23668;SDS011;12011;47.422;15.018;2023-07-20T07:07:16;2.08;;;2.08;;
23668;SDS011;12011;47.422;15.018;2023-07-20T07:09:45;2.43;;;2.43;;
23668;SDS011;12011;47.422;15.018;2023-07-20T07:12:15;2.19;;;2.19;;
23668;SDS011;12011;47.422;15.018;2023-07-20T07:14:44;2.18;;;2.18;;
23668;SDS011;12011;47.422;15.018;2023-07-20T07:17:14;2.15;;;2.15;;
23668;SDS011;12011;47.422;15.018;2023-07-20T07:19:46;2.09;;;2.09;;
23668;SDS011;12011;47.422;15.018;2023-07-20T07:22:18;2.49;;;2.49;;
23668;SDS011;12011;47.422;15.018;2023-07-20T07:24:48;2.11;;;2.11;;
23668;SDS011;12011;47.422;15.018;2023-07-20T07:27:17;2.25;;;2.25;;
23668;SDS011;12011;47.422;15.018;2023-07-20T07:29:47;2.14;;;2.14;;
23668;SDS011;12011;47.422;15.018;2023-07-20T07:32:16;2.45;;;2.45;;
23668;SDS011;12011;47.422;15.018;2023-07-20T07:34:49;2.05;;;2.05;;
23668;SDS011;12011;47.422;15.018;2023-07-20T07:37:19;2.09;;;2.09;;
23668;SDS011;12011;47.422;15.018;2023-07-20T07:39:48;2.19;;;2.19;;
23668;SDS011;12011;47.422;15.018;2023-07-20T07:42:18;1.96;;;1.96;;
23668;SDS011;12011;47.422;15.018;2023-07-20T07:44:47;2.21;;;2.21;;
23668;SDS011;12011;47.422;15.018;2023-07-20T07:47:17;2.15;;;2.15;;
23668;SDS011;12011;47.422;15.018;2023-07-20T07:49:49;1.89;;;1.89;;
23668;SDS011;12011;47.422;15.018;2023-07-20T07:52:19;1.99;;;1.99;;
23668;SDS011;12011;47.422;15.018;2023-07-20T07:54:49;2.29;;;2.29;;
23668;SDS011;12011;47.422;15.018;2023-07-20T07:57:19;1.99;;;1.99;;
23668;SDS011;12011;47.422;15.018;2023-07-20T07:59:48;1.79;;;1.79;;
23668;SDS011;12011;47.422;15.018;2023-07-20T08:02:18;1.89;;;1.89;;
23668;SDS011;12011;47.422;15.018;2023-07-20T08:04:50;1.91;;;1.91;;
23668;SDS011;12011;47.422;15.018;2023-07-20T08:07:20;2.06;;;2.06;;
23668;SDS011;12011;47.422;15.018;2023-07-20T08:09:50;1.92;;;1.92;;
23668;SDS011;12011;47.422;15.018;2023-07-20T08:12:19;2.00;;;2.00;;
23668;SDS011;12011;47.422;15.018;2023-07-20T08:14:49;1.82;;;1.82;;
23668;SDS011;12011;47.422;15.018;2023-07-20T08:17:19;1.71;;;1.71;;
23668;SDS011;12011;47.422;15.018;2023-07-20T08:19:51;1.90;;;1.90;;
23668;SDS011;12011;47.422;15.018;2023-07-20T08:22:21;1.80;;;1.80;;
23668;SDS011;12011;47.422;15.018;2023-07-20T08:24:51;1.79;;;1.79;;
23668;SDS011;12011;47.422;15.018;2023-07-20T08:27:21;1.74;;;1.74;;
23668;SDS011;12011;47.422;15.018;2023-07-20T08:29:51;1.76;;;1.76;;
23668;SDS011;12011;47.422;15.018;2023-07-20T08:32:20;1.90;;;1.90;;
23668;SDS011;12011;47.422;15.018;2023-07-20T08:34:52;1.75;;;1.75;;
23668;SDS011;12011;47.422;15.018;2023-07-20T08:37:22;1.73;;;1.73;;
23668;SDS011;12011;47.422;15.018;2023-07-20T08:39:52;1.92;;;1.92;;
23668;SDS011;12011;47.422;15.018;2023-07-20T08:42:21;1.64;;;1.64;;
23668;SDS011;12011;47.422;15.018;2023-07-20T08:44:52;1.49;;;1.49;;
23668;SDS011;12011;47.422;15.018;2023-07-20T08:47:23;1.62;;;1.62;;
23668;SDS011;12011;47.422;15.018;2023-07-20T08:49:57;1.50;;;1.50;;
23668;SDS011;12011;47.422;15.018;2023-07-20T08:52:32;1.14;;;1.14;;
23668;SDS011;12011;47.422;15.018;2023-07-20T08:55:03;1.48;;;1.48;;
23668;SDS011;12011;47.422;15.018;2023-07-20T08:57:34;1.37;;;1.37;;
23668;SDS011;12011;47.422;15.018;2023-07-20T09:00:07;1.36;;;1.36;;
23668;SDS011;12011;47.422;15.018;2023-07-20T09:02:40;1.39;;;1.39;;
23668;SDS011;12011;47.422;15.018;2023-07-20T09:05:16;1.29;;;1.29;;
23668;SDS011;12011;47.422;15.018;2023-07-20T09:07:46;1.39;;;1.39;;
23668;SDS011;12011;47.422;15.018;2023-07-20T09:10:16;1.28;;;1.28;;
23668;SDS011;12011;47.422;15.018;2023-07-20T09:12:45;1.20;;;1.20;;
23668;SDS011;12011;47.422;15.018;2023-07-20T09:15:15;1.35;;;1.35;;
23668;SDS011;12011;47.422;15.018;2023-07-20T09:17:45;1.42;;;1.42;;
23668;SDS011;12011;47.422;15.018;2023-07-20T09:20:18;1.29;;;1.29;;
23668;SDS011;12011;47.422;15.018;2023-07-20T09:22:50;1.03;;;1.03;;
23668;SDS011;12011;47.422;15.018;2023-07-20T09:25:20;1.23;;;1.23;;
23668;SDS011;12011;47.422;15.018;2023-07-20T09:27:51;1.12;;;1.12;;
23668;SDS011;12011;47.422;15.018;2023-07-20T09:30:21;1.08;;;1.08;;
23668;SDS011;12011;47.422;15.018;2023-07-20T09:32:54;1.06;;;1.06;;
23668;SDS011;12011;47.422;15.018;2023-07-20T09:35:26;1.05;;;1.05;;
23668;SDS011;12011;47.422;15.018;2023-07-20T09:37:57;1.16;;;1.16;;
23668;SDS011;12011;47.422;15.018;2023-07-20T09:40:29;1.31;;;1.31;;
23668;SDS011;12011;47.422;15.018;2023-07-20T09:42:59;1.05;;;1.05;;
23668;SDS011;12011;47.422;15.018;2023-07-20T09:45:31;1.21;;;1.21;;
23668;SDS011;12011;47.422;15.018;2023-07-20T09:48:05;1.12;;;1.12;;
23668;SDS011;12011;47.422;15.018;2023-07-20T09:50:42;1.23;;;1.23;;
23668;SDS011;12011;47.422;15.018;2023-07-20T09:53:18;1.13;;;1.13;;
23668;SDS011;12011;47.422;15.018;2023-07-20T09:55:48;1.18;;;1.18;;
23668;SDS011;12011;47.422;15.018;2023-07-20T09:58:18;1.18;;;1.18;;
23668;SDS011;12011;47.422;15.018;2023-07-20T10:00:48;1.18;;;1.18;;
23668;SDS011;12011;47.422;15.018;2023-07-20T10:03:23;1.18;;;1.18;;
23668;SDS011;12011;47.422;15.018;2023-07-20T10:06:02;1.21;;;1.21;;
23668;SDS011;12011;47.422;15.018;2023-07-20T10:08:37;1.24;;;1.24;;
23668;SDS011;12011;47.422;15.018;2023-07-20T10:11:09;1.20;;;1.20;;
23668;SDS011;12011;47.422;15.018;2023-07-20T10:13:40;1.07;;;1.07;;
23668;SDS011;12011;47.422;15.018;2023-07-20T10:16:14;1.12;;;1.12;;
23668;SDS011;12011;47.422;15.018;2023-07-20T10:18:51;1.30;;;1.30;;
23668;SDS011;12011;47.422;15.018;2023-07-20T10:21:34;1.28;;;1.28;;
23668;SDS011;12011;47.422;15.018;2023-07-20T10:24:11;1.26;;;1.26;;
23668;SDS011;12011;47.422;15.018;2023-07-20T10:26:41;1.23;;;1.23;;
23668;SDS011;12011;47.422;15.018;2023-07-20T10:29:11;1.36;;;1.36;;
23668;SDS011;12011;47.422;15.018;2023-07-20T10:31:43;1.47;;;1.47;;
23668;SDS011;12011;47.422;15.018;2023-07-20T10:34:14;1.56;;;1.56;;
23668;SDS011;12011;47.422;15.018;2023-07-20T10:36:46;1.43;;;1.43;;
23668;SDS011;12011;47.422;15.018;2023-07-20T10:39:24;1.56;;;1.56;;
23668;SDS011;12011;47.422;15.018;2023-07-20T10:42:02;1.55;;;1.55;;
23668;SDS011;12011;47.422;15.018;2023-07-20T10:44:36;1.53;;;1.53;;
23668;SDS011;12011;47.422;15.018;2023-07-20T10:47:09;1.71;;;1.71;;
23668;SDS011;12011;47.422;15.018;2023-07-20T10:52:39;1.79;;;1.79;;
23668;SDS011;12011;47.422;15.018;2023-07-20T10:55:14;1.70;;;1.70;;
23668;SDS011;12011;47.422;15.018;2023-07-20T10:57:44;1.61;;;1.61;;
23668;SDS011;12011;47.422;15.018;2023-07-20T11:00:54;1.32;;;1.32;;
23668;SDS011;12011;47.422;15.018;2023-07-20T11:03:30;1.27;;;1.27;;
23668;SDS011;12011;47.422;15.018;2023-07-20T11:09:07;1.18;;;1.18;;
23668;SDS011;12011;47.422;15.018;2023-07-20T11:11:40;1.43;;;1.43;;
23668;SDS011;12011;47.422;15.018;2023-07-20T11:14:19;1.22;;;1.22;;
23668;SDS011;12011;47.422;15.018;2023-07-20T11:16:51;1.30;;;1.30;;
23668;SDS011;12011;47.422;15.018;2023-07-20T11:19:23;1.16;;;1.16;;
23668;SDS011;12011;47.422;15.018;2023-07-20T11:21:54;1.13;;;1.13;;
23668;SDS011;12011;47.422;15.018;2023-07-20T11:24:28;1.25;;;1.25;;
23668;SDS011;12011;47.422;15.018;2023-07-20T11:26:58;1.30;;;1.30;;
23668;SDS011;12011;47.422;15.018;2023-07-20T11:29:28;1.43;;;1.43;;
23668;SDS011;12011;47.422;15.018;2023-07-20T11:31:57;1.26;;;1.26;;
23668;SDS011;12011;47.422;15.018;2023-07-20T11:34:30;1.39;;;1.39;;
23668;SDS011;12011;47.422;15.018;2023-07-20T11:37:01;1.39;;;1.39;;
23668;SDS011;12011;47.422;15.018;2023-07-20T11:39:34;1.39;;;1.39;;
23668;SDS011;12011;47.422;15.018;2023-07-20T11:42:04;1.36;;;1.36;;
23668;SDS011;12011;47.422;15.018;2023-07-20T11:44:34;1.58;;;1.58;;
23668;SDS011;12011;47.422;15.018;2023-07-20T11:47:05;1.34;;;1.34;;
23668;SDS011;12011;47.422;15.018;2023-07-20T11:49:37;1.37;;;1.37;;
23668;SDS011;12011;47.422;15.018;2023-07-20T11:52:10;1.45;;;1.45;;
23668;SDS011;12011;47.422;15.018;2023-07-20T11:54:45;1.44;;;1.44;;
23668;SDS011;12011;47.422;15.018;2023-07-20T11:57:16;1.24;;;1.24;;
23668;SDS011;12011;47.422;15.018;2023-07-20T11:59:52;1.57;;;1.57;;
23668;SDS011;12011;47.422;15.018;2023-07-20T12:02:26;1.74;;;1.74;;
23668;SDS011;12011;47.422;15.018;2023-07-20T12:04:56;1.78;;;1.78;;
23668;SDS011;12011;47.422;15.018;2023-07-20T12:07:27;1.73;;;1.73;;
23668;SDS011;12011;47.422;15.018;2023-07-20T12:10:07;1.72;;;1.72;;
23668;SDS011;12011;47.422;15.018;2023-07-20T12:12:40;1.79;;;1.79;;
23668;SDS011;12011;47.422;15.018;2023-07-20T12:15:15;1.88;;;1.88;;
23668;SDS011;12011;47.422;15.018;2023-07-20T12:17:46;1.90;;;1.90;;
23668;SDS011;12011;47.422;15.018;2023-07-20T12:20:25;1.68;;;1.68;;
23668;SDS011;12011;47.422;15.018;2023-07-20T12:22:57;1.76;;;1.76;;
23668;SDS011;12011;47.422;15.018;2023-07-20T12:25:36;1.63;;;1.63;;
23668;SDS011;12011;47.422;15.018;2023-07-20T12:28:08;1.66;;;1.66;;
23668;SDS011;12011;47.422;15.018;2023-07-20T12:30:40;1.46;;;1.46;;
23668;SDS011;12011;47.422;15.018;2023-07-20T12:33:12;1.51;;;1.51;;
23668;SDS011;12011;47.422;15.018;2023-07-20T12:35:42;1.69;;;1.69;;
23668;SDS011;12011;47.422;15.018;2023-07-20T12:38:13;1.68;;;1.68;;
23668;SDS011;12011;47.422;15.018;2023-07-20T12:40:45;1.58;;;1.58;;
23668;SDS011;12011;47.422;15.018;2023-07-20T12:43:15;1.53;;;1.53;;
23668;SDS011;12011;47.422;15.018;2023-07-20T12:45:45;1.54;;;1.54;;
23668;SDS011;12011;47.422;15.018;2023-07-20T12:48:15;1.68;;;1.68;;
23668;SDS011;12011;47.422;15.018;2023-07-20T12:50:44;1.53;;;1.53;;
23668;SDS011;12011;47.422;15.018;2023-07-20T12:53:14;1.79;;;1.79;;
23668;SDS011;12011;47.422;15.018;2023-07-20T12:55:47;1.79;;;1.79;;
23668;SDS011;12011;47.422;15.018;2023-07-20T12:58:17;1.68;;;1.68;;
23668;SDS011;12011;47.422;15.018;2023-07-20T13:00:46;1.62;;;1.62;;
23668;SDS011;12011;47.422;15.018;2023-07-20T13:03:16;1.79;;;1.79;;
23668;SDS011;12011;47.422;15.018;2023-07-20T13:05:46;1.87;;;1.87;;
23668;SDS011;12011;47.422;15.018;2023-07-20T13:08:16;1.67;;;1.67;;
23668;SDS011;12011;47.422;15.018;2023-07-20T13:10:48;1.47;;;1.47;;
23668;SDS011;12011;47.422;15.018;2023-07-20T13:13:18;1.66;;;1.66;;
23668;SDS011;12011;47.422;15.018;2023-07-20T13:15:47;1.71;;;1.71;;
23668;SDS011;12011;47.422;15.018;2023-07-20T13:18:17;1.60;;;1.60;;
23668;SDS011;12011;47.422;15.018;2023-07-20T13:20:47;1.73;;;1.73;;
23668;SDS011;12011;47.422;15.018;2023-07-20T13:23:16;1.82;;;1.82;;
23668;SDS011;12011;47.422;15.018;2023-07-20T13:25:46;1.44;;;1.44;;
23668;SDS011;12011;47.422;15.018;2023-07-20T13:28:18;1.42;;;1.42;;
23668;SDS011;12011;47.422;15.018;2023-07-20T13:30:47;1.51;;;1.51;;
23668;SDS011;12011;47.422;15.018;2023-07-20T13:33:18;1.54;;;1.54;;
23668;SDS011;12011;47.422;15.018;2023-07-20T13:35:47;1.32;;;1.32;;
23668;SDS011;12011;47.422;15.018;2023-07-20T13:38:16;1.37;;;1.37;;
23668;SDS011;12011;47.422;15.018;2023-07-20T13:40:49;1.51;;;1.51;;
23668;SDS011;12011;47.422;15.018;2023-07-20T13:43:19;1.40;;;1.40;;
23668;SDS011;12011;47.422;15.018;2023-07-20T13:45:48;1.23;;;1.23;;
23668;SDS011;12011;47.422;15.018;2023-07-20T13:48:18;1.21;;;1.21;;
23668;SDS011;12011;47.422;15.018;2023-07-20T13:50:48;1.31;;;1.31;;
23668;SDS011;12011;47.422;15.018;2023-07-20T13:53:18;1.44;;;1.44;;
23668;SDS011;12011;47.422;15.018;2023-07-20T13:55:51;1.44;;;1.44;;
23668;SDS011;12011;47.422;15.018;2023-07-20T13:58:22;1.44;;;1.44;;
23668;SDS011;12011;47.422;15.018;2023-07-20T14:00:53;1.36;;;1.36;;
23668;SDS011;12011;47.422;15.018;2023-07-20T14:03:22;1.33;;;1.33;;
23668;SDS011;12011;47.422;15.018;2023-07-20T14:05:52;1.31;;;1.31;;
23668;SDS011;12011;47.422;15.018;2023-07-20T14:08:22;1.31;;;1.31;;
23668;SDS011;12011;47.422;15.018;2023-07-20T14:10:54;1.43;;;1.43;;
23668;SDS011;12011;47.422;15.018;2023-07-20T14:13:24;1.46;;;1.46;;
23668;SDS011;12011;47.422;15.018;2023-07-20T14:15:53;1.32;;;1.32;;
23668;SDS011;12011;47.422;15.018;2023-07-20T14:18:23;1.36;;;1.36;;
23668;SDS011;12011;47.422;15.018;2023-07-20T14:20:52;1.32;;;1.32;;
23668;SDS011;12011;47.422;15.018;2023-07-20T14:23:22;1.44;;;1.44;;
23668;SDS011;12011;47.422;15.018;2023-07-20T14:25:54;1.32;;;1.32;;
23668;SDS011;12011;47.422;15.018;2023-07-20T14:28:24;1.23;;;1.23;;
23668;SDS011;12011;47.422;15.018;2023-07-20T14:30:54;1.31;;;1.31;;
23668;SDS011;12011;47.422;15.018;2023-07-20T14:33:23;1.44;;;1.44;;
23668;SDS011;12011;47.422;15.018;2023-07-20T14:35:53;1.55;;;1.55;;
23668;SDS011;12011;47.422;15.018;2023-07-20T14:38:22;1.41;;;1.41;;
23668;SDS011;12011;47.422;15.018;2023-07-20T14:40:54;1.47;;;1.47;;
23668;SDS011;12011;47.422;15.018;2023-07-20T14:43:24;1.57;;;1.57;;
23668;SDS011;12011;47.422;15.018;2023-07-20T14:45:54;1.39;;;1.39;;
23668;SDS011;12011;47.422;15.018;2023-07-20T14:48:23;1.46;;;1.46;;
23668;SDS011;12011;47.422;15.018;2023-07-20T14:50:53;1.43;;;1.43;;
23668;SDS011;12011;47.422;15.018;2023-07-20T14:53:22;1.27;;;1.27;;
23668;SDS011;12011;47.422;15.018;2023-07-20T14:56:00;1.29;;;1.29;;
23668;SDS011;12011;47.422;15.018;2023-07-20T14:58:31;1.37;;;1.37;;
23668;SDS011;12011;47.422;15.018;2023-07-20T15:01:00;1.39;;;1.39;;
23668;SDS011;12011;47.422;15.018;2023-07-20T15:03:30;1.32;;;1.32;;
23668;SDS011;12011;47.422;15.018;2023-07-20T15:06:00;1.29;;;1.29;;